Time;durP1;ratioP1;P1;durP2;ratioP2;P2;SDS_P1;SDS_P2;PMS_P1;PMS_P2;Temp;Humidity;BMP_temperature;BMP_pressure;BME280_temperature;BME280_humidity;BME280_pressure;Samples;Min_cycle;Max_cycle;Signal;HPM_P1;HPM_P2
2022/11/17 00:02:10;;;;;;;7.32;1.00;;;12.30;80.50;;;;;;5005132;28;20121;-68
2022/11/17 00:04:35;;;;;;;2.30;1.10;;;12.20;80.60;;;;;;5008350;28;20042;-67
2022/11/17 00:07:01;;;;;;;1.23;0.98;;;12.20;80.70;;;;;;5044739;28;20105;-68
2022/11/17 00:09:27;;;;;;;1.08;0.82;;;12.20;80.90;;;;;;5017050;28;20018;-67
2022/11/17 00:14:39;;;;;;;2.15;1.05;;;12.30;81.00;;;;;;5014055;28;20028;-70
2022/11/17 00:17:10;;;;;;;1.23;0.80;;;12.30;81.10;;;;;;5006955;28;20079;-67
2022/11/17 00:22:21;;;;;;;2.10;1.15;;;12.20;81.20;;;;;;5010665;28;20143;-69
2022/11/17 00:24:48;;;;;;;3.03;1.20;;;12.20;81.30;;;;;;5023360;28;20500;-69
2022/11/17 00:27:13;;;;;;;2.70;0.82;;;12.20;81.40;;;;;;5019318;28;20018;-69
2022/11/17 00:29:39;;;;;;;1.20;0.95;;;12.20;81.40;;;;;;5019010;28;20427;-68
2022/11/17 00:34:54;;;;;;;1.65;0.90;;;12.20;81.80;;;;;;5030471;28;20396;-69
2022/11/17 00:37:20;;;;;;;1.45;0.82;;;12.20;81.90;;;;;;5019936;28;20034;-69
2022/11/17 00:39:46;;;;;;;1.02;0.80;;;12.20;81.90;;;;;;5012570;28;20067;-69
2022/11/17 00:42:11;;;;;;;1.48;0.80;;;12.20;82.00;;;;;;5025319;28;20041;-69
2022/11/17 00:44:37;;;;;;;1.75;1.00;;;12.20;82.00;;;;;;5023320;28;20038;-69
2022/11/17 00:47:03;;;;;;;2.75;0.68;;;12.20;82.30;;;;;;5041936;28;20099;-69
2022/11/17 00:49:28;;;;;;;1.08;0.73;;;12.20;82.40;;;;;;5022496;28;20521;-69
2022/11/17 00:51:55;;;;;;;3.20;0.90;;;12.10;82.50;;;;;;5027686;28;20121;-69
2022/11/17 00:54:21;;;;;;;5.60;0.85;;;12.20;82.60;;;;;;5011130;28;20053;-69
2022/11/17 00:56:47;;;;;;;0.93;0.82;;;12.20;82.50;;;;;;5013927;28;20041;-67
2022/11/17 00:59:14;;;;;;;4.90;0.90;;;12.20;82.60;;;;;;5028922;28;20037;-67
2022/11/17 01:01:40;;;;;;;1.40;1.02;;;12.10;82.60;;;;;;5013699;28;20027;-67
2022/11/17 01:04:06;;;;;;;3.05;0.82;;;12.20;82.80;;;;;;5024484;28;20038;-67
2022/11/17 01:06:46;;;;;;;1.90;1.02;;;12.20;83.10;;;;;;5018706;28;20136;-67
2022/11/17 01:09:22;;;;;;;2.90;0.77;;;12.10;83.30;;;;;;5028521;28;20033;-67
2022/11/17 01:11:50;;;;;;;0.80;0.75;;;12.10;83.30;;;;;;5012737;28;20360;-67
2022/11/17 01:14:18;;;;;;;3.35;1.17;;;12.10;83.50;;;;;;5021400;28;20038;-68
2022/11/17 01:16:44;;;;;;;0.80;0.63;;;12.10;83.40;;;;;;5026690;28;20060;-67
2022/11/17 01:19:12;;;;;;;2.47;1.10;;;12.10;83.40;;;;;;5024738;28;20068;-67
2022/11/17 01:21:38;;;;;;;1.45;0.90;;;12.10;83.50;;;;;;5018335;28;20030;-67
2022/11/17 01:24:04;;;;;;;5.03;1.27;;;12.10;83.60;;;;;;5024630;28;20029;-67
2022/11/17 01:26:35;;;;;;;1.83;1.02;;;12.10;83.80;;;;;;5030256;28;20041;-69
2022/11/17 01:29:02;;;;;;;0.98;0.90;;;12.10;83.90;;;;;;5014006;28;20428;-69
2022/11/17 01:31:30;;;;;;;1.10;0.85;;;12.10;84.10;;;;;;5042764;28;20035;-68
2022/11/17 01:33:56;;;;;;;1.20;0.98;;;12.10;84.20;;;;;;5011870;28;20052;-68
2022/11/17 01:36:25;;;;;;;0.70;0.70;;;12.10;84.40;;;;;;5013876;28;21039;-68
2022/11/17 01:38:51;;;;;;;1.17;0.90;;;12.10;84.40;;;;;;5028425;28;20109;-69
2022/11/17 01:41:20;;;;;;;2.13;1.23;;;12.10;84.50;;;;;;5010696;28;20137;-68
2022/11/17 01:43:54;;;;;;;2.08;0.93;;;12.10;84.40;;;;;;5006602;28;20426;-69
2022/11/17 01:46:34;;;;;;;0.90;0.80;;;12.10;84.60;;;;;;5006858;28;20060;-69
2022/11/17 01:49:20;;;;;;;2.72;1.00;;;12.10;84.60;;;;;;5019966;28;20052;-68
2022/11/17 01:51:54;;;;;;;1.70;0.73;;;12.10;84.70;;;;;;5018722;28;20025;-69
2022/11/17 01:54:24;;;;;;;0.80;0.75;;;12.10;85.00;;;;;;5008658;28;20160;-69
2022/11/17 01:56:56;;;;;;;0.52;0.43;;;12.10;85.10;;;;;;5010658;28;20085;-68
2022/11/17 01:59:30;;;;;;;0.98;0.80;;;12.10;85.10;;;;;;5010037;28;20029;-69
2022/11/17 02:01:57;;;;;;;1.63;0.95;;;12.10;85.00;;;;;;5013181;28;20396;-69
2022/11/17 02:04:48;;;;;;;2.08;1.02;;;12.10;85.00;;;;;;5020220;28;20038;-68
2022/11/17 02:07:24;;;;;;;1.73;0.73;;;12.10;85.30;;;;;;5017042;28;20169;-68
2022/11/17 02:09:52;;;;;;;0.40;0.40;;;12.10;85.40;;;;;;5013911;28;20469;-68
2022/11/17 02:12:19;;;;;;;0.82;0.77;;;12.10;85.50;;;;;;5015227;28;20033;-68
2022/11/17 02:14:47;;;;;;;0.75;0.60;;;12.10;85.50;;;;;;5014005;28;20455;-70
2022/11/17 02:17:13;;;;;;;2.42;0.60;;;12.10;85.60;;;;;;5021280;28;20041;-69
2022/11/17 02:19:41;;;;;;;0.50;0.50;;;12.10;85.60;;;;;;5017952;28;20029;-69
2022/11/17 02:22:37;;;;;;;1.85;1.02;;;12.10;85.70;;;;;;5022821;28;20392;-69
2022/11/17 02:25:30;;;;;;;7.13;1.40;;;12.10;85.90;;;;;;5010348;28;20033;-68
2022/11/17 02:28:19;;;;;;;2.22;0.73;;;12.10;85.90;;;;;;5022816;28;20098;-68
2022/11/17 02:31:09;;;;;;;1.90;0.90;;;12.10;86.10;;;;;;5014892;28;20087;-69
2022/11/17 02:33:51;;;;;;;0.45;0.45;;;12.20;86.10;;;;;;5011813;28;20388;-68
2022/11/17 02:36:28;;;;;;;0.43;0.43;;;12.20;86.20;;;;;;5021967;28;20055;-69
2022/11/17 02:39:22;;;;;;;1.10;0.85;;;12.20;86.10;;;;;;5037937;28;20357;-69
2022/11/17 02:42:13;;;;;;;0.85;0.65;;;12.20;86.00;;;;;;5021993;28;20097;-69
2022/11/17 02:44:57;;;;;;;1.05;0.77;;;12.20;85.80;;;;;;5017435;28;20037;-68
2022/11/17 02:47:33;;;;;;;1.30;0.55;;;12.20;85.90;;;;;;5026367;28;20029;-69
2022/11/17 02:50:08;;;;;;;1.42;0.85;;;12.30;85.90;;;;;;5028411;28;20013;-69
2022/11/17 02:52:34;;;;;;;1.02;0.65;;;12.30;86.00;;;;;;5025173;28;20108;-69
2022/11/17 02:55:01;;;;;;;1.65;0.77;;;12.30;86.10;;;;;;5024607;28;20173;-68
2022/11/17 02:57:35;;;;;;;2.25;0.70;;;12.30;86.00;;;;;;5014118;28;20030;-68
2022/11/17 03:00:11;;;;;;;2.83;0.73;;;12.30;86.00;;;;;;5005667;28;20044;-68
2022/11/17 03:02:55;;;;;;;1.13;0.70;;;12.30;85.90;;;;;;5015844;28;20029;-68
2022/11/17 03:05:37;;;;;;;0.75;0.30;;;12.30;85.90;;;;;;5017818;28;20034;-69
2022/11/17 03:08:17;;;;;;;3.37;0.90;;;12.30;85.90;;;;;;5009852;28;20488;-69
2022/11/17 03:10:55;;;;;;;1.35;0.70;;;12.30;85.80;;;;;;5019395;28;20357;-68
2022/11/17 03:13:27;;;;;;;1.60;1.00;;;12.40;85.90;;;;;;5017742;28;20021;-68
2022/11/17 03:16:02;;;;;;;2.28;0.75;;;12.30;85.90;;;;;;5018511;28;20059;-69
2022/11/17 03:18:53;;;;;;;0.63;0.63;;;12.30;85.80;;;;;;5021018;28;20428;-69
2022/11/17 03:21:50;;;;;;;0.60;0.60;;;12.40;85.70;;;;;;5022031;28;20030;-69
2022/11/17 03:24:22;;;;;;;0.73;0.73;;;12.40;85.90;;;;;;5019413;28;20448;-69
2022/11/17 03:26:57;;;;;;;1.38;0.98;;;12.40;85.70;;;;;;5018194;28;20032;-69
2022/11/17 03:29:27;;;;;;;2.55;1.00;;;12.40;85.60;;;;;;5024630;28;20033;-69
2022/11/17 03:31:59;;;;;;;0.30;0.30;;;12.40;85.60;;;;;;5017304;28;20488;-69
2022/11/17 03:34:28;;;;;;;0.97;0.77;;;12.40;85.50;;;;;;5030575;28;20025;-68
2022/11/17 03:36:59;;;;;;;0.57;0.57;;;12.40;85.50;;;;;;5027528;28;20025;-68
2022/11/17 03:39:33;;;;;;;1.65;0.50;;;12.40;85.60;;;;;;5029832;28;20087;-69
2022/11/17 03:42:26;;;;;;;1.02;0.60;;;12.40;85.50;;;;;;5023431;28;20103;-69
2022/11/17 03:45:05;;;;;;;1.02;0.82;;;12.40;85.40;;;;;;5026401;28;20036;-69
2022/11/17 03:47:32;;;;;;;4.72;0.57;;;12.50;85.20;;;;;;5016796;28;20022;-69
2022/11/17 03:50:17;;;;;;;1.38;0.57;;;12.50;85.20;;;;;;5029060;28;20113;-69
2022/11/17 03:52:44;;;;;;;0.40;0.40;;;12.50;85.00;;;;;;5017481;28;20293;-69
2022/11/17 03:55:10;;;;;;;2.20;0.73;;;12.50;85.10;;;;;;5013312;28;20114;-69
2022/11/17 03:58:02;;;;;;;1.65;0.70;;;12.50;85.00;;;;;;5024394;28;20049;-68
2022/11/17 04:00:28;;;;;;;4.78;0.57;;;12.50;84.90;;;;;;5007714;28;20026;-69
2022/11/17 04:02:57;;;;;;;0.38;0.38;;;12.50;85.00;;;;;;5010413;28;20033;-69
2022/11/17 04:05:23;;;;;;;0.85;0.52;;;12.50;85.00;;;;;;5022887;28;20420;-69
2022/11/17 04:07:49;;;;;;;0.60;0.60;;;12.50;85.00;;;;;;5029592;28;20393;-69
2022/11/17 04:10:20;;;;;;;0.57;0.43;;;12.50;85.00;;;;;;5022825;28;20164;-69
2022/11/17 04:18:20;;;;;;;0.93;0.60;;;12.50;84.70;;;;;;5017476;28;20040;-69
2022/11/17 04:20:50;;;;;;;1.25;0.40;;;12.50;84.90;;;;;;5014459;28;20465;-69
2022/11/17 04:23:16;;;;;;;0.43;0.40;;;12.50;84.90;;;;;;5008212;28;20472;-68
2022/11/17 04:28:36;;;;;;;0.55;0.50;;;12.50;84.90;;;;;;5015761;28;20053;-68
2022/11/17 04:31:10;;;;;;;0.40;0.40;;;12.50;85.00;;;;;;5009974;28;20036;-68
2022/11/17 04:33:37;;;;;;;1.63;0.43;;;12.50;85.10;;;;;;5013103;28;20056;-68
2022/11/17 04:36:05;;;;;;;0.82;0.47;;;12.40;85.20;;;;;;5016141;28;20040;-68
2022/11/17 04:38:30;;;;;;;0.75;0.57;;;12.40;85.30;;;;;;5015273;28;20029;-69
2022/11/17 04:43:52;;;;;;;1.23;0.50;;;12.50;85.50;;;;;;5009750;28;20064;-69
2022/11/17 04:46:18;;;;;;;0.30;0.30;;;12.40;85.40;;;;;;5012170;28;20034;-68
2022/11/17 04:48:45;;;;;;;0.85;0.52;;;12.50;85.40;;;;;;5007810;28;20026;-68
2022/11/17 04:51:11;;;;;;;1.75;0.82;;;12.40;85.50;;;;;;5009466;28;20030;-69
2022/11/17 04:53:37;;;;;;;1.08;0.68;;;12.40;85.60;;;;;;5011641;28;20373;-69
2022/11/17 04:56:03;;;;;;;0.52;0.52;;;12.40;85.60;;;;;;5004638;28;20054;-68
2022/11/17 04:58:29;;;;;;;1.08;0.60;;;12.40;85.60;;;;;;5008279;28;20062;-69
2022/11/17 05:00:55;;;;;;;0.50;0.43;;;12.40;85.70;;;;;;5007694;28;20109;-69
2022/11/17 05:03:21;;;;;;;1.02;0.60;;;12.40;85.60;;;;;;5040646;28;20168;-68
2022/11/17 05:05:47;;;;;;;2.58;0.70;;;12.40;85.60;;;;;;5041917;28;20488;-69
2022/11/17 05:08:14;;;;;;;0.75;0.75;;;12.40;85.50;;;;;;5048742;28;20171;-68
2022/11/17 05:13:35;;;;;;;0.50;0.50;;;12.40;85.50;;;;;;5012757;28;20463;-68
2022/11/17 05:18:45;;;;;;;0.73;0.70;;;12.40;85.50;;;;;;5021547;28;20040;-68
2022/11/17 05:21:10;;;;;;;0.57;0.40;;;12.40;85.50;;;;;;5018824;28;20534;-69
2022/11/17 05:23:55;;;;;;;1.67;0.90;;;12.40;85.50;;;;;;5023961;28;20467;-68
2022/11/17 05:26:30;;;;;;;2.80;0.75;;;12.40;85.50;;;;;;5018504;28;20045;-69
2022/11/17 05:28:57;;;;;;;1.17;0.50;;;12.40;85.50;;;;;;5017526;28;20045;-69
2022/11/17 05:31:24;;;;;;;0.77;0.40;;;12.40;85.40;;;;;;5037349;28;20820;-69
2022/11/17 05:33:50;;;;;;;0.45;0.40;;;12.40;85.40;;;;;;5016195;28;20022;-69
2022/11/17 05:36:16;;;;;;;0.60;0.60;;;12.40;85.30;;;;;;5027230;28;20072;-69
2022/11/17 05:38:42;;;;;;;0.90;0.50;;;12.40;85.40;;;;;;5016337;28;20022;-69
2022/11/17 05:41:07;;;;;;;0.40;0.40;;;12.40;85.50;;;;;;5014542;28;20108;-69
2022/11/17 05:43:33;;;;;;;0.35;0.35;;;12.40;85.50;;;;;;5019657;28;20041;-69
2022/11/17 05:46:00;;;;;;;0.40;0.40;;;12.40;85.60;;;;;;5015380;28;20048;-68
2022/11/17 05:48:26;;;;;;;0.88;0.50;;;12.40;85.60;;;;;;5010064;28;20026;-69
2022/11/17 05:50:53;;;;;;;1.10;0.45;;;12.40;85.60;;;;;;5012110;28;20029;-69
2022/11/17 05:53:20;;;;;;;1.95;0.68;;;12.40;85.60;;;;;;5010231;28;20030;-68
2022/11/17 05:55:46;;;;;;;0.93;0.60;;;12.40;85.60;;;;;;5008783;28;20050;-69
2022/11/17 05:58:25;;;;;;;1.13;0.50;;;12.40;85.70;;;;;;5009641;28;20662;-69
2022/11/17 06:00:53;;;;;;;1.50;0.52;;;12.40;85.60;;;;;;5017146;28;20022;-69
2022/11/17 06:03:36;;;;;;;1.65;0.50;;;12.40;85.70;;;;;;5046336;28;20058;-69
2022/11/17 06:06:02;;;;;;;0.63;0.60;;;12.40;85.70;;;;;;5010215;28;20616;-69
2022/11/17 06:08:29;;;;;;;1.10;0.70;;;12.40;86.00;;;;;;5013569;28;20029;-69
2022/11/17 06:10:55;;;;;;;1.05;0.75;;;12.40;85.90;;;;;;5015358;28;20092;-69
2022/11/17 06:13:24;;;;;;;1.65;0.95;;;12.40;85.90;;;;;;5006846;28;20037;-69
2022/11/17 06:15:52;;;;;;;0.40;0.40;;;12.40;85.90;;;;;;5020530;28;20103;-67
2022/11/17 06:18:22;;;;;;;0.40;0.40;;;12.40;86.00;;;;;;5015530;28;20523;-66
2022/11/17 06:20:50;;;;;;;2.38;0.95;;;12.40;86.10;;;;;;5017870;28;20030;-69
2022/11/17 06:23:19;;;;;;;2.08;0.77;;;12.30;86.20;;;;;;5013733;28;20514;-69
2022/11/17 06:25:45;;;;;;;1.58;0.90;;;12.30;86.10;;;;;;5014606;28;20026;-67
2022/11/17 06:28:13;;;;;;;1.00;0.82;;;12.30;86.20;;;;;;5005866;28;20105;-66
2022/11/17 06:30:40;;;;;;;1.70;0.77;;;12.30;86.30;;;;;;5009219;28;20083;-67
2022/11/17 06:33:12;;;;;;;0.80;0.70;;;12.30;86.30;;;;;;5005551;28;20036;-67
2022/11/17 06:35:39;;;;;;;1.50;0.82;;;12.30;86.30;;;;;;5020938;28;20049;-66
2022/11/17 06:38:04;;;;;;;2.05;0.45;;;12.40;86.50;;;;;;5039812;28;20037;-67
2022/11/17 06:40:30;;;;;;;0.82;0.65;;;12.30;86.60;;;;;;5021717;28;20571;-67
2022/11/17 06:43:11;;;;;;;0.50;0.50;;;12.30;86.60;;;;;;5012793;28;20034;-67
2022/11/17 06:45:44;;;;;;;1.88;0.63;;;12.30;86.60;;;;;;5013587;28;20092;-72
2022/11/17 06:48:12;;;;;;;2.83;0.63;;;12.30;86.70;;;;;;5016510;28;20026;-69
2022/11/17 06:50:38;;;;;;;7.10;1.00;;;12.30;86.70;;;;;;5024566;28;20021;-69
2022/11/17 06:53:06;;;;;;;1.85;0.68;;;12.40;86.60;;;;;;5020033;28;20481;-74
2022/11/17 06:55:33;;;;;;;0.93;0.45;;;12.40;86.60;;;;;;5022476;28;20092;-75
2022/11/17 06:58:07;;;;;;;1.15;0.50;;;12.40;86.50;;;;;;5012530;28;20038;-74
2022/11/17 07:00:34;;;;;;;0.68;0.55;;;12.40;86.50;;;;;;5013200;28;20033;-75
2022/11/17 07:03:08;;;;;;;0.75;0.63;;;12.40;86.50;;;;;;5023498;28;20029;-75
2022/11/17 07:05:35;;;;;;;1.45;0.70;;;12.50;87.00;;;;;;5014434;28;20128;-75
2022/11/17 07:08:04;;;;;;;0.65;0.43;;;12.50;86.40;;;;;;5012010;28;20503;-75
2022/11/17 07:10:30;;;;;;;0.68;0.60;;;12.50;86.40;;;;;;5016233;28;20034;-75
2022/11/17 07:12:56;;;;;;;1.30;0.63;;;12.50;86.50;;;;;;5012815;28;20089;-78
2022/11/17 07:15:23;;;;;;;0.45;0.45;;;12.50;86.40;;;;;;5018297;28;20042;-76
2022/11/17 07:17:49;;;;;;;0.90;0.68;;;12.50;86.30;;;;;;5040165;28;20025;-76
2022/11/17 07:20:15;;;;;;;0.85;0.43;;;12.50;86.40;;;;;;5025370;28;20032;-74
2022/11/17 07:22:41;;;;;;;3.80;0.90;;;12.50;86.30;;;;;;5023877;28;20048;-77
2022/11/17 07:25:08;;;;;;;1.30;0.45;;;12.50;86.40;;;;;;5022484;28;20025;-78
2022/11/17 07:27:34;;;;;;;0.88;0.68;;;12.50;86.40;;;;;;5018544;28;20507;-76
2022/11/17 07:30:00;;;;;;;0.60;0.40;;;12.50;86.30;;;;;;5013018;28;20058;-79
2022/11/17 07:32:26;;;;;;;0.20;0.20;;;12.50;86.40;;;;;;5016210;28;20080;-76
2022/11/17 07:34:51;;;;;;;1.23;0.40;;;12.50;86.20;;;;;;5038964;28;20037;-79
2022/11/17 07:37:17;;;;;;;0.30;0.25;;;12.50;86.20;;;;;;5001343;28;20034;-78
2022/11/17 07:39:43;;;;;;;0.30;0.30;;;12.50;86.20;;;;;;5010817;28;20104;-79
2022/11/17 07:42:09;;;;;;;4.07;0.70;;;12.60;86.10;;;;;;5011308;28;20109;-69
2022/11/17 07:44:34;;;;;;;1.30;0.47;;;12.60;86.00;;;;;;5013817;28;20041;-68
2022/11/17 07:47:00;;;;;;;1.00;0.45;;;12.60;85.90;;;;;;5011604;28;20054;-75
2022/11/17 07:49:27;;;;;;;0.35;0.35;;;12.60;85.90;;;;;;5003587;28;20065;-77
2022/11/17 07:51:53;;;;;;;0.73;0.60;;;12.60;85.90;;;;;;5019848;28;20557;-75
2022/11/17 07:54:18;;;;;;;1.20;0.50;;;12.60;86.00;;;;;;5014849;28;20121;-76
2022/11/17 07:56:44;;;;;;;0.50;0.50;;;12.60;86.00;;;;;;5009864;28;20073;-71
2022/11/17 07:59:10;;;;;;;0.55;0.55;;;12.60;86.10;;;;;;5011994;28;20065;-72
2022/11/17 08:01:36;;;;;;;0.47;0.40;;;12.60;86.10;;;;;;5018054;28;20461;-71
2022/11/17 08:04:02;;;;;;;2.55;0.43;;;12.50;86.10;;;;;;5016979;28;20034;-72
2022/11/17 08:06:27;;;;;;;1.15;0.40;;;12.50;86.20;;;;;;5022721;28;20049;-72
2022/11/17 08:08:53;;;;;;;2.53;0.68;;;12.60;86.20;;;;;;5018854;28;20048;-71
2022/11/17 08:11:19;;;;;;;1.95;0.40;;;12.50;86.20;;;;;;5019374;28;20022;-74
2022/11/17 08:13:45;;;;;;;0.30;0.30;;;12.50;86.10;;;;;;4993622;28;20040;-75
2022/11/17 08:16:11;;;;;;;3.95;0.77;;;12.50;86.10;;;;;;5012367;28;20042;-72
2022/11/17 08:18:38;;;;;;;0.60;0.50;;;12.60;86.20;;;;;;5011224;28;20030;-73
2022/11/17 08:21:10;;;;;;;1.40;0.52;;;12.60;86.10;;;;;;5013035;28;20030;-73
2022/11/17 08:23:36;;;;;;;3.30;0.60;;;12.60;86.10;;;;;;5004730;28;20029;-70
2022/11/17 08:26:03;;;;;;;1.90;0.70;;;12.60;86.00;;;;;;5011042;28;20032;-70
2022/11/17 08:28:29;;;;;;;0.22;0.20;;;12.60;86.00;;;;;;5010760;28;20021;-71
2022/11/17 08:30:55;;;;;;;1.15;0.45;;;12.60;86.00;;;;;;5014692;28;20030;-70
2022/11/17 08:33:21;;;;;;;1.55;0.50;;;12.50;85.90;;;;;;5023781;28;20038;-69
2022/11/17 08:35:47;;;;;;;2.40;1.02;;;12.50;85.90;;;;;;5015079;28;20073;-70
2022/11/17 08:38:17;;;;;;;1.00;0.52;;;12.50;85.90;;;;;;5011869;28;20500;-70
2022/11/17 08:40:43;;;;;;;0.73;0.30;;;12.50;85.90;;;;;;4999647;28;20100;-69
2022/11/17 08:43:08;;;;;;;0.65;0.30;;;12.50;85.90;;;;;;5004791;28;20029;-70
2022/11/17 08:45:34;;;;;;;0.98;0.60;;;12.50;85.80;;;;;;5007070;28;20033;-70
2022/11/17 08:48:00;;;;;;;0.47;0.47;;;12.50;85.80;;;;;;5002419;28;20033;-70
2022/11/17 08:50:26;;;;;;;0.40;0.40;;;12.50;85.70;;;;;;5013886;28;20416;-70
2022/11/17 08:52:52;;;;;;;2.10;0.70;;;12.50;85.80;;;;;;5034827;28;20053;-69
2022/11/17 08:55:18;;;;;;;0.57;0.28;;;12.50;85.70;;;;;;5051411;28;20520;-70
2022/11/17 08:57:44;;;;;;;0.52;0.52;;;12.50;85.60;;;;;;5009055;28;20037;-71
2022/11/17 09:00:10;;;;;;;0.75;0.35;;;12.40;85.60;;;;;;5039206;28;20412;-70
2022/11/17 09:02:39;;;;;;;1.17;0.57;;;12.40;85.70;;;;;;5010393;28;20030;-70
2022/11/17 09:05:05;;;;;;;0.82;0.43;;;12.40;85.70;;;;;;5010276;28;20041;-69
2022/11/17 09:07:34;;;;;;;0.45;0.45;;;12.40;85.80;;;;;;5012440;28;20037;-70
2022/11/17 09:10:01;;;;;;;1.00;0.63;;;12.30;85.90;;;;;;5009118;28;20033;-70
2022/11/17 09:12:26;;;;;;;0.40;0.40;;;12.30;85.70;;;;;;5011542;28;20499;-70
2022/11/17 09:14:52;;;;;;;0.85;0.40;;;12.20;85.80;;;;;;5011407;28;20029;-70
2022/11/17 09:17:18;;;;;;;0.43;0.40;;;12.30;85.80;;;;;;5010571;28;20104;-70
2022/11/17 09:19:43;;;;;;;1.17;0.57;;;12.30;85.70;;;;;;5010313;28;20432;-71
2022/11/17 09:22:09;;;;;;;1.60;0.80;;;12.30;85.70;;;;;;5011249;28;20120;-71
2022/11/17 09:24:35;;;;;;;0.30;0.30;;;12.30;85.60;;;;;;5011354;28;20025;-71
2022/11/17 09:27:02;;;;;;;1.85;0.40;;;12.30;85.60;;;;;;5014015;28;20018;-71
2022/11/17 09:29:29;;;;;;;0.32;0.22;;;12.30;85.50;;;;;;5026305;28;20022;-71
2022/11/17 09:31:54;;;;;;;0.32;0.20;;;12.40;85.40;;;;;;5016632;28;20504;-71
2022/11/17 09:34:20;;;;;;;0.28;0.20;;;12.40;85.30;;;;;;5043351;28;20113;-71
2022/11/17 09:36:47;;;;;;;0.85;0.35;;;12.40;85.20;;;;;;5012031;28;20037;-70
2022/11/17 09:39:14;;;;;;;0.55;0.52;;;12.50;85.20;;;;;;5019488;28;20489;-71
2022/11/17 09:41:53;;;;;;;0.25;0.25;;;12.40;85.20;;;;;;5014109;28;20017;-70
2022/11/17 09:44:40;;;;;;;0.28;0.28;;;12.50;85.20;;;;;;5008888;28;20037;-71
2022/11/17 09:47:12;;;;;;;0.43;0.43;;;12.40;85.00;;;;;;4999604;28;20026;-71
2022/11/17 09:49:58;;;;;;;0.40;0.33;;;12.40;85.00;;;;;;5006545;28;20335;-72
2022/11/17 09:52:48;;;;;;;0.28;0.25;;;12.40;85.00;;;;;;5001846;28;20137;-71
2022/11/17 09:55:32;;;;;;;1.05;0.40;;;12.40;85.00;;;;;;5004686;28;20607;-71
2022/11/17 09:58:49;;;;;;;0.60;0.50;;;12.40;84.80;;;;;;5002310;28;21564;-70
2022/11/17 10:01:20;;;;;;;2.05;0.20;;;12.30;84.80;;;;;;5013916;28;20220;-71
2022/11/17 10:03:48;;;;;;;0.65;0.50;;;12.30;84.90;;;;;;5001652;28;20049;-70
2022/11/17 10:06:17;;;;;;;0.20;0.20;;;12.30;84.70;;;;;;5007367;28;20046;-71
2022/11/17 10:09:25;;;;;;;1.23;0.47;;;12.30;84.60;;;;;;5006750;28;20358;-71
2022/11/17 10:11:53;;;;;;;1.45;0.52;;;12.30;84.50;;;;;;5009671;28;20117;-71
2022/11/17 10:14:22;;;;;;;0.60;0.60;;;12.20;84.60;;;;;;5007282;28;20040;-70
2022/11/17 10:16:54;;;;;;;0.93;0.40;;;12.20;84.60;;;;;;5013722;28;20022;-70
2022/11/17 10:19:22;;;;;;;0.57;0.50;;;12.20;84.70;;;;;;5043255;28;20473;-70
2022/11/17 10:21:52;;;;;;;3.97;0.60;;;12.20;84.70;;;;;;5013374;28;20104;-70
2022/11/17 10:24:46;;;;;;;0.20;0.20;;;12.20;84.80;;;;;;5007767;28;20502;-70
2022/11/17 10:27:31;;;;;;;0.65;0.20;;;12.20;84.70;;;;;;5015262;28;20045;-70
2022/11/17 10:30:00;;;;;;;0.32;0.20;;;12.20;84.90;;;;;;5017326;28;20030;-71
2022/11/17 10:32:29;;;;;;;0.77;0.47;;;12.20;85.00;;;;;;5009469;28;20026;-70
2022/11/17 10:34:55;;;;;;;0.43;0.43;;;12.20;84.90;;;;;;5010838;28;20061;-70
2022/11/17 10:37:25;;;;;;;1.90;0.47;;;12.20;84.80;;;;;;5008011;28;20511;-71
2022/11/17 10:40:07;;;;;;;0.47;0.40;;;12.30;84.70;;;;;;5015097;28;20485;-71
2022/11/17 10:42:33;;;;;;;0.75;0.50;;;12.40;84.60;;;;;;5024715;28;20040;-70
2022/11/17 10:45:00;;;;;;;0.40;0.30;;;12.30;84.50;;;;;;5015160;28;20392;-72
2022/11/17 10:47:32;;;;;;;0.88;0.47;;;12.30;84.30;;;;;;5012357;28;20023;-71
2022/11/17 10:50:21;;;;;;;1.17;0.40;;;12.30;84.40;;;;;;5030009;28;20018;-71
2022/11/17 10:52:48;;;;;;;2.05;0.50;;;12.30;84.30;;;;;;5030111;28;20103;-71
2022/11/17 10:55:27;;;;;;;0.98;0.30;;;12.30;84.30;;;;;;5024626;28;20117;-71
2022/11/17 10:57:56;;;;;;;0.45;0.20;;;12.30;84.40;;;;;;5014352;28;20191;-71
2022/11/17 11:00:32;;;;;;;1.55;0.40;;;12.40;84.90;;;;;;5004063;28;20341;-71
2022/11/17 11:03:18;;;;;;;0.28;0.28;;;12.40;84.20;;;;;;5012796;28;20072;-70
2022/11/17 11:06:06;;;;;;;2.35;0.50;;;12.40;84.10;;;;;;5013548;28;20053;-70
2022/11/17 11:08:38;;;;;;;1.65;0.40;;;12.40;84.10;;;;;;5009713;28;20377;-70
2022/11/17 11:11:07;;;;;;;;;;;12.40;84.20;;;;;;5011437;28;20009;-70
2022/11/17 11:13:47;;;;;;;0.50;0.50;;;12.40;84.20;;;;;;5012137;28;19941;-71
2022/11/17 11:16:13;;;;;;;1.20;0.40;;;12.30;84.20;;;;;;5012881;28;20033;-70
2022/11/17 11:18:39;;;;;;;0.30;0.30;;;12.30;84.00;;;;;;5015328;28;20113;-71
2022/11/17 11:21:25;;;;;;;0.40;0.30;;;12.40;84.00;;;;;;5014712;28;20079;-71
2022/11/17 11:24:36;;;;;;;4.30;0.77;;;12.40;83.70;;;;;;5012386;28;20065;-70
2022/11/17 11:27:29;;;;;;;1.45;0.47;;;12.50;83.70;;;;;;5009419;28;20386;-70
2022/11/17 11:29:55;;;;;;;0.80;0.40;;;12.50;83.60;;;;;;5011367;28;20033;-69
2022/11/17 11:32:24;;;;;;;1.15;0.68;;;12.50;83.50;;;;;;5012599;28;20109;-69
2022/11/17 11:35:17;;;;;;;0.63;0.50;;;12.60;83.50;;;;;;5013285;28;20454;-69
2022/11/17 11:38:24;;;;;;;0.98;0.38;;;12.60;83.10;;;;;;5005680;28;20112;-71
2022/11/17 11:41:24;;;;;;;0.60;0.30;;;12.60;83.10;;;;;;5017885;28;20045;-70
2022/11/17 11:44:27;;;;;;;0.65;0.40;;;12.60;83.20;;;;;;5016083;28;20061;-70
2022/11/17 11:47:04;;;;;;;1.05;0.73;;;12.60;83.10;;;;;;5010623;28;20061;-70
2022/11/17 11:49:42;;;;;;;0.20;0.20;;;12.60;83.10;;;;;;5007732;28;20033;-70
2022/11/17 11:52:19;;;;;;;0.30;0.30;;;12.60;82.80;;;;;;5006119;28;20518;-70
2022/11/17 11:55:13;;;;;;;0.30;0.30;;;12.70;82.60;;;;;;5005742;28;20563;-70
2022/11/17 11:57:46;;;;;;;1.58;0.25;;;12.70;82.50;;;;;;5009442;28;20036;-70
2022/11/17 12:00:16;;;;;;;0.63;0.35;;;12.60;82.50;;;;;;4997789;28;20033;-70
2022/11/17 12:02:50;;;;;;;1.20;0.40;;;12.60;82.40;;;;;;5010517;28;20432;-70
2022/11/17 12:05:31;;;;;;;0.30;0.30;;;12.60;82.40;;;;;;5036883;28;20112;-70
2022/11/17 12:08:02;;;;;;;0.40;0.30;;;12.60;82.40;;;;;;5012374;28;20029;-70
2022/11/17 12:10:35;;;;;;;0.43;0.30;;;12.60;82.40;;;;;;5012809;28;20080;-70
2022/11/17 12:13:03;;;;;;;1.48;0.57;;;12.70;82.50;;;;;;5010677;28;20276;-70
2022/11/17 12:15:34;;;;;;;0.28;0.28;;;12.60;82.80;;;;;;5020915;28;20512;-70
2022/11/17 12:18:10;;;;;;;0.80;0.50;;;12.70;82.30;;;;;;5010046;28;20483;-70
2022/11/17 12:20:35;;;;;;;3.08;0.65;;;12.70;82.20;;;;;;5011486;28;20476;-70
2022/11/17 12:23:32;;;;;;;0.82;0.40;;;12.70;82.40;;;;;;5012787;28;20036;-71
2022/11/17 12:25:59;;;;;;;1.27;0.40;;;12.70;82.40;;;;;;5017443;28;20029;-71
2022/11/17 12:28:37;;;;;;;1.13;0.50;;;12.60;82.40;;;;;;5009729;28;20045;-70
2022/11/17 12:31:29;;;;;;;0.25;0.25;;;12.70;82.30;;;;;;5018592;28;20037;-70
2022/11/17 12:34:00;;;;;;;1.40;0.52;;;12.70;82.30;;;;;;5008890;28;20054;-70
2022/11/17 12:36:30;;;;;;;1.08;0.50;;;12.70;82.30;;;;;;4995892;28;20044;-71
2022/11/17 12:38:57;;;;;;;0.93;0.60;;;12.70;82.30;;;;;;5014489;28;20084;-71
2022/11/17 12:41:48;;;;;;;0.22;0.20;;;12.70;82.20;;;;;;5009037;28;20034;-71
2022/11/17 12:44:35;;;;;;;0.40;0.30;;;12.80;82.30;;;;;;5047253;28;20134;-70
2022/11/17 12:47:15;;;;;;;2.20;0.57;;;12.80;82.20;;;;;;5005113;28;20397;-70
2022/11/17 12:49:51;;;;;;;0.40;0.40;;;12.80;82.00;;;;;;5009801;28;20485;-71
2022/11/17 12:52:38;;;;;;;0.40;0.40;;;12.80;82.10;;;;;;5020584;28;20022;-71
2022/11/17 12:55:32;;;;;;;2.53;0.70;;;12.80;82.10;;;;;;5026373;28;20034;-70
2022/11/17 12:58:03;;;;;;;0.57;0.40;;;12.80;82.10;;;;;;5006604;28;20049;-69
2022/11/17 13:00:35;;;;;;;2.47;0.50;;;12.80;82.30;;;;;;5005782;28;21553;-70
2022/11/17 13:03:18;;;;;;;1.50;0.50;;;12.80;82.10;;;;;;5012341;28;20029;-71
2022/11/17 13:05:44;;;;;;;1.08;0.57;;;12.70;82.00;;;;;;5021814;28;20311;-72
2022/11/17 13:08:12;;;;;;;0.32;0.32;;;12.70;81.70;;;;;;5012914;28;20026;-72
2022/11/17 13:10:38;;;;;;;0.30;0.30;;;12.70;81.70;;;;;;5010280;28;20058;-72
2022/11/17 13:13:18;;;;;;;2.25;0.45;;;12.70;81.80;;;;;;5021135;28;20063;-72
2022/11/17 13:15:47;;;;;;;0.40;0.40;;;12.70;81.80;;;;;;5014523;28;20041;-71
2022/11/17 13:18:36;;;;;;;0.22;0.22;;;12.70;81.90;;;;;;5046552;28;20064;-68
2022/11/17 13:21:13;;;;;;;0.43;0.43;;;12.70;81.80;;;;;;5019887;28;20046;-69
2022/11/17 13:23:43;;;;;;;0.32;0.32;;;12.70;82.00;;;;;;5009893;28;20523;-70
2022/11/17 13:26:15;;;;;;;0.13;0.13;;;12.70;82.00;;;;;;5009921;28;20037;-70
2022/11/17 13:28:43;;;;;;;4.35;0.50;;;12.70;82.00;;;;;;5039189;28;20497;-70
2022/11/17 13:31:21;;;;;;;5.05;0.47;;;12.70;82.10;;;;;;5009088;28;20401;-70
2022/11/17 13:34:01;;;;;;;0.47;0.47;;;12.60;82.00;;;;;;5010501;28;20018;-69
2022/11/17 13:36:27;;;;;;;1.05;0.20;;;12.60;82.00;;;;;;5010395;28;20022;-69
2022/11/17 13:38:56;;;;;;;0.30;0.30;;;12.60;82.20;;;;;;4998970;28;20039;-70